Time,TemperatureF,DewpointF,PressureIn,WindDirection,WindDirectionDegrees,WindSpeedMPH,WindSpeedGustMPH,Humidity,HourlyPrecipIn,Conditions,Clouds,dailyrainin,SoftwareType,DateUTC
2013-07-08 00:14:00,81.3,72.0,29.91,SSE,161,9.0,13.0,73,0.00,,,0.00,weatherlink.com 1.10,2013-07-08 05:14:00,
2013-07-08 00:29:00,81.1,72.0,29.91,SSE,166,8.0,12.0,74,0.00,,,0.00,weatherlink.com 1.10,2013-07-08 05:29:00,
2013-07-08 00:45:00,80.7,72.0,29.91,South,169,5.0,13.0,75,0.00,,,0.00,weatherlink.com 1.10,2013-07-08 05:45:00,
2013-07-08 01:00:00,80.4,72.0,29.91,South,170,12.0,13.0,76,0.00,,,0.00,weatherlink.com 1.10,2013-07-08 06:00:00,
2013-07-08 01:15:00,80.2,72.0,29.91,South,172,5.0,14.0,77,0.00,,,0.00,weatherlink.com 1.10,2013-07-08 06:15:00,
2013-07-08 01:30:00,80.0,72.0,29.91,SSE,168,5.0,14.0,77,0.00,,,0.00,weatherlink.com 1.10,2013-07-08 06:30:00,
2013-07-08 01:45:00,79.8,72.0,29.91,South,171,7.0,15.0,77,0.00,,,0.00,weatherlink.com 1.10,2013-07-08 06:45:00,
2013-07-08 02:00:00,79.6,72.0,29.91,SSE,162,9.0,16.0,78,0.00,,,0.00,weatherlink.com 1.10,2013-07-08 07:00:00,
2013-07-08 02:15:00,79.5,73.0,29.91,South,169,11.0,15.0,79,0.00,,,0.00,weatherlink.com 1.10,2013-07-08 07:15:00,
2013-07-08 02:30:00,79.4,72.0,29.91,South,170,10.0,15.0,79,0.00,,,0.00,weatherlink.com 1.10,2013-07-08 07:30:00,
2013-07-08 02:45:00,79.3,73.0,29.91,South,169,10.0,14.0,80,0.00,,,0.00,weatherlink.com 1.10,2013-07-08 07:45:00,
2013-07-08 03:00:00,79.1,72.0,29.91,South,170,11.0,13.0,80,0.00,,,0.00,weatherlink.com 1.10,2013-07-08 08:00:00,
2013-07-08 03:15:00,78.8,72.0,29.91,South,178,8.0,13.0,80,0.00,,,0.00,weatherlink.com 1.10,2013-07-08 08:15:00,
2013-07-08 03:30:00,78.7,72.0,29.92,South,172,10.0,14.0,81,0.00,,,0.00,weatherlink.com 1.10,2013-07-08 08:30:00,
2013-07-08 03:45:00,78.6,72.0,29.92,SSE,165,9.0,12.0,81,0.00,,,0.00,weatherlink.com 1.10,2013-07-08 08:45:00,
2013-07-08 04:00:00,78.4,73.0,29.93,SSE,158,7.0,10.0,82,0.00,,,0.00,weatherlink.com 1.10,2013-07-08 09:00:00,
2013-07-08 04:15:00,78.1,73.0,29.93,SSE,157,10.0,14.0,83,0.00,,,0.00,weatherlink.com 1.10,2013-07-08 09:15:00,
2013-07-08 04:30:00,77.9,72.0,29.93,SSE,157,8.0,16.0,83,0.00,,,0.00,weatherlink.com 1.10,2013-07-08 09:30:00,
2013-07-08 04:45:00,77.6,73.0,29.94,SSE,162,11.0,15.0,84,0.00,,,0.00,weatherlink.com 1.10,2013-07-08 09:45:00,
2013-07-08 05:00:00,77.6,73.0,29.95,SSE,163,11.0,15.0,84,0.00,,,0.00,weatherlink.com 1.10,2013-07-08 10:00:00,
2013-07-08 05:15:00,77.6,72.0,29.95,South,172,8.0,16.0,83,0.00,,,0.00,weatherlink.com 1.10,2013-07-08 10:15:00,
2013-07-08 05:30:00,77.6,72.0,29.95,SSE,165,8.0,18.0,83,0.00,,,0.00,weatherlink.com 1.10,2013-07-08 10:30:00,
2013-07-08 05:45:00,77.4,72.0,29.95,SSE,168,15.0,19.0,83,0.00,,,0.00,weatherlink.com 1.10,2013-07-08 10:45:00,
2013-07-08 06:00:00,77.3,72.0,29.96,SSE,168,12.0,16.0,84,0.00,,,0.00,weatherlink.com 1.10,2013-07-08 11:00:00,
2013-07-08 06:15:00,77.2,72.0,29.96,South,170,10.0,14.0,84,0.00,,,0.00,weatherlink.com 1.10,2013-07-08 11:15:00,
2013-07-08 06:30:00,77.1,72.0,29.97,South,169,11.0,16.0,84,0.00,,,0.00,weatherlink.com 1.10,2013-07-08 11:30:00,
2013-07-08 06:45:00,77.0,72.0,29.96,SSE,161,8.0,15.0,84,0.00,,,0.00,weatherlink.com 1.10,2013-07-08 11:45:00,
2013-07-08 07:00:00,76.9,72.0,29.98,SSE,166,11.0,15.0,84,0.00,,,0.00,weatherlink.com 1.10,2013-07-08 12:00:00,
2013-07-08 07:15:00,76.8,72.0,29.98,South,171,4.0,11.0,85,0.00,,,0.00,weatherlink.com 1.10,2013-07-08 12:15:00,
2013-07-08 07:30:00,76.8,72.0,29.99,SSE,160,6.0,15.0,84,0.00,,,0.00,weatherlink.com 1.10,2013-07-08 12:30:00,
2013-07-08 07:45:00,76.9,72.0,30.00,South,170,7.0,11.0,84,0.00,,,0.00,weatherlink.com 1.10,2013-07-08 12:45:00,
2013-07-08 08:00:00,77.1,72.0,30.00,South,170,7.0,11.0,84,0.00,,,0.00,weatherlink.com 1.10,2013-07-08 13:00:00,
2013-07-08 08:15:00,78.0,72.0,30.00,South,183,11.0,11.0,82,0.00,,,0.00,weatherlink.com 1.10,2013-07-08 13:15:00,
2013-07-08 08:30:00,78.6,72.0,30.01,South,190,5.0,10.0,81,0.00,,,0.00,weatherlink.com 1.10,2013-07-08 13:30:00,
2013-07-08 08:45:00,79.7,72.0,30.01,SSW,197,8.0,12.0,78,0.00,,,0.00,weatherlink.com 1.10,2013-07-08 13:45:00,
2013-07-08 09:00:00,80.6,72.0,30.01,SSW,196,6.0,10.0,76,0.00,,,0.00,weatherlink.com 1.10,2013-07-08 14:00:00,
2013-07-08 09:15:00,81.2,72.0,30.02,SSW,199,5.0,13.0,74,0.00,,,0.00,weatherlink.com 1.10,2013-07-08 14:15:00,
2013-07-08 09:30:00,81.5,72.0,30.01,South,191,7.0,12.0,73,0.00,,,0.00,weatherlink.com 1.10,2013-07-08 14:30:00,
2013-07-08 09:45:00,81.7,72.0,30.02,South,189,8.0,15.0,72,0.00,,,0.00,weatherlink.com 1.10,2013-07-08 14:45:00,
2013-07-08 10:01:00,82.3,72.0,30.02,SSW,194,7.0,14.0,70,0.00,,,0.00,weatherlink.com 1.10,2013-07-08 15:01:00,
2013-07-08 10:16:00,83.1,72.0,30.02,SSW,196,8.0,13.0,69,0.00,,,0.00,weatherlink.com 1.10,2013-07-08 15:16:00,
2013-07-08 10:31:00,83.2,72.0,30.02,South,177,11.0,13.0,68,0.00,,,0.00,weatherlink.com 1.10,2013-07-08 15:31:00,
2013-07-08 10:46:00,83.5,71.0,30.02,SSW,195,13.0,15.0,67,0.00,,,0.00,weatherlink.com 1.10,2013-07-08 15:46:00,
2013-07-08 11:01:00,84.9,71.0,30.02,South,188,6.0,15.0,64,0.00,,,0.00,weatherlink.com 1.10,2013-07-08 16:01:00,
2013-07-08 11:16:00,86.5,72.0,30.02,South,190,10.0,15.0,62,0.00,,,0.00,weatherlink.com 1.10,2013-07-08 16:16:00,
2013-07-08 11:31:00,86.6,71.0,30.02,SSW,199,7.0,12.0,60,0.00,,,0.00,weatherlink.com 1.10,2013-07-08 16:31:00,
2013-07-08 11:46:00,86.9,71.0,30.01,South,183,7.0,11.0,60,0.00,,,0.00,weatherlink.com 1.10,2013-07-08 16:46:00,
2013-07-08 12:01:00,86.9,71.0,30.01,South,182,13.0,13.0,60,0.00,,,0.00,weatherlink.com 1.10,2013-07-08 17:01:00,
2013-07-08 12:16:00,86.5,71.0,30.00,South,187,10.0,14.0,60,0.00,,,0.00,weatherlink.com 1.10,2013-07-08 17:16:00,
2013-07-08 12:31:00,87.4,72.0,30.00,South,188,8.0,15.0,60,0.00,,,0.00,weatherlink.com 1.10,2013-07-08 17:31:00,
2013-07-08 12:46:00,82.8,72.0,30.01,South,187,11.0,22.0,69,0.00,,,0.00,weatherlink.com 1.10,2013-07-08 17:46:00,
2013-07-08 13:01:00,80.4,73.0,30.00,South,190,9.0,22.0,77,0.00,,,0.00,weatherlink.com 1.10,2013-07-08 18:01:00,
2013-07-08 13:16:00,81.6,73.0,30.00,SSW,200,6.0,10.0,74,0.00,,,0.00,weatherlink.com 1.10,2013-07-08 18:16:00,
2013-07-08 13:31:00,84.3,73.0,30.00,South,184,7.0,10.0,68,0.00,,,0.00,weatherlink.com 1.10,2013-07-08 18:31:00,
2013-07-08 14:16:00,85.1,71.0,29.99,SSE,167,8.0,9.0,63,0.00,,,0.00,weatherlink.com 1.10,2013-07-08 19:16:00,
2013-07-08 15:01:00,78.3,73.0,30.01,SE,138,10.0,14.0,83,0.00,,,0.00,weatherlink.com 1.10,2013-07-08 20:01:00,
2013-07-08 15:16:00,77.4,72.0,30.01,SE,139,8.0,11.0,84,0.00,,,0.00,weatherlink.com 1.10,2013-07-08 20:16:00,
2013-07-08 15:31:00,77.4,73.0,30.00,SE,136,8.0,11.0,86,0.00,,,0.00,weatherlink.com 1.10,2013-07-08 20:31:00,
2013-07-08 15:46:00,78.1,73.0,30.00,SSE,151,5.0,11.0,85,0.00,,,0.00,weatherlink.com 1.10,2013-07-08 20:46:00,
2013-07-08 16:01:00,78.7,74.0,30.00,SSE,152,3.0,7.0,84,0.00,,,0.00,weatherlink.com 1.10,2013-07-08 21:01:00,
2013-07-08 16:31:00,79.8,74.0,29.98,SSE,151,5.0,7.0,82,0.00,,,0.00,weatherlink.com 1.10,2013-07-08 21:31:00,
2013-07-08 16:46:00,80.6,75.0,29.98,SE,142,5.0,7.0,82,0.00,,,0.00,weatherlink.com 1.10,2013-07-08 21:46:00,
2013-07-08 17:31:00,83.9,74.0,29.97,SE,135,11.0,13.0,72,0.00,,,0.00,weatherlink.com 1.10,2013-07-08 22:31:00,
2013-07-08 17:46:00,84.1,72.0,29.96,SSE,149,6.0,13.0,68,0.00,,,0.00,weatherlink.com 1.10,2013-07-08 22:46:00,
2013-07-08 18:31:00,85.0,69.0,29.96,SE,128,9.0,12.0,59,0.00,,,0.00,weatherlink.com 1.10,2013-07-08 23:31:00,
2013-07-08 18:46:00,85.4,68.0,29.96,SE,143,9.0,18.0,56,0.00,,,0.00,weatherlink.com 1.10,2013-07-08 23:46:00,
2013-07-08 19:01:00,85.7,69.0,29.96,SSE,160,10.0,21.0,57,0.00,,,0.00,weatherlink.com 1.10,2013-07-09 00:01:00,
2013-07-08 19:46:00,85.1,69.0,29.96,South,173,9.0,17.0,59,0.00,,,0.00,weatherlink.com 1.10,2013-07-09 00:46:00,
2013-07-08 20:01:00,84.8,70.0,29.96,South,169,5.0,15.0,61,0.00,,,0.00,weatherlink.com 1.10,2013-07-09 01:01:00,
2013-07-08 20:31:00,84.2,71.0,29.97,SSE,156,10.0,14.0,64,0.00,,,0.00,weatherlink.com 1.10,2013-07-09 01:31:00,
2013-07-08 21:16:00,82.9,70.0,29.97,SSE,149,6.0,9.0,66,0.00,,,0.00,weatherlink.com 1.10,2013-07-09 02:16:00,
2013-07-08 21:31:00,82.3,71.0,29.98,SE,144,8.0,10.0,68,0.00,,,0.00,weatherlink.com 1.10,2013-07-09 02:31:00,
2013-07-08 21:46:00,82.0,70.0,29.98,SSE,154,9.0,11.0,68,0.00,,,0.00,weatherlink.com 1.10,2013-07-09 02:46:00,
2013-07-08 22:46:00,81.7,71.0,30.01,SSE,158,11.0,15.0,70,0.00,,,0.00,weatherlink.com 1.10,2013-07-09 03:46:00,
2013-07-08 23:16:00,81.4,71.0,30.03,SSE,165,11.0,18.0,71,0.00,,,0.00,weatherlink.com 1.10,2013-07-09 04:16:00,
2013-07-08 23:32:00,81.3,71.0,30.04,SSE,165,12.0,15.0,71,0.00,,,0.00,weatherlink.com 1.10,2013-07-09 04:32:00,
2013-07-08 23:47:00,81.2,71.0,30.04,South,181,11.0,15.0,71,0.00,,,0.00,weatherlink.com 1.10,2013-07-09 04:47:00,